Wetterdaten: Woche 03.10.16 - 09.10.16 (KW40)
Datum Zeit Temp. A. Feuchte A. Luftdruck Regen Wind Richtung Taupunkt Windchill Windben
03.10.2016 00:00 13,7 C 82 % 1016,3 hPa 0,0 l/m 11,5 km/h N 10,6 C 11,0 C 29,0 km/h
03.10.2016 01:00 13,9 C 78 % 1017,0 hPa 0,0 l/m 10,9 km/h N 10,1 C 11,5 C 29,0 km/h
03.10.2016 02:00 13,6 C 79 % 1017,3 hPa 0,3 l/m 6,1 km/h N 9,9 C 13,3 C 22,1 km/h
03.10.2016 03:00 13,0 C 80 % 1017,5 hPa 0,0 l/m 7,2 km/h N 9,6 C 12,4 C 22,5 km/h
03.10.2016 04:00 13,3 C 78 % 1018,1 hPa 0,0 l/m 8,1 km/h N 9,6 C 12,3 C 21,3 km/h
03.10.2016 05:00 13,4 C 76 % 1018,7 hPa 0,0 l/m 6,9 km/h N 9,3 C 13,0 C 23,3 km/h
03.10.2016 06:00 13,4 C 75 % 1018,9 hPa 0,0 l/m 5,9 km/h N 9,0 C 13,4 C 23,7 km/h
03.10.2016 07:00 13,1 C 74 % 1019,2 hPa 0,0 l/m 2,9 km/h N 8,7 C 13,1 C 13,3 km/h
03.10.2016 08:00 13,0 C 79 % 1019,8 hPa 0,0 l/m 7,4 km/h N 9,4 C 12,1 C 20,9 km/h
03.10.2016 09:00 14,3 C 74 % 1020,1 hPa 0,3 l/m 11,1 km/h N 9,6 C 11,8 C 31,0 km/h
03.10.2016 10:00 13,9 C 72 % 1020,4 hPa 0,0 l/m 11,2 km/h N 8,9 C 11,4 C 28,6 km/h
03.10.2016 11:00 14,3 C 74 % 1020,7 hPa 0,0 l/m 10,1 km/h N 9,6 C 12,3 C 26,6 km/h
03.10.2016 12:00 14,6 C 73 % 1020,6 hPa 0,0 l/m 10,6 km/h N 9,9 C 12,4 C 27,0 km/h
03.10.2016 13:00 15,1 C 68 % 1020,7 hPa 0,0 l/m 12,2 km/h N 9,3 C 12,3 C 31,8 km/h
03.10.2016 14:00 14,7 C 68 % 1020,4 hPa 0,0 l/m 10,5 km/h N 8,9 C 12,6 C 28,6 km/h
03.10.2016 15:00 16,1 C 60 % 1020,0 hPa 0,0 l/m 10,3 km/h N 8,4 C 14,3 C 28,2 km/h
03.10.2016 16:00 13,8 C 75 % 1020,6 hPa 1,0 l/m 7,4 km/h N 9,4 C 12,8 C 21,3 km/h
03.10.2016 17:00 13,1 C 78 % 1020,5 hPa 0,5 l/m 8,1 km/h N 9,3 C 12,0 C 23,7 km/h
03.10.2016 18:00 13,2 C 75 % 1020,6 hPa 0,0 l/m 9,1 km/h N 8,7 C 11,6 C 24,1 km/h
03.10.2016 19:00 13,1 C 74 % 1020,8 hPa 0,0 l/m 10,4 km/h N 8,6 C 10,8 C 25,7 km/h
03.10.2016 20:00 12,7 C 77 % 1020,8 hPa 0,0 l/m 10,8 km/h N 8,7 C 10,2 C 27,0 km/h
03.10.2016 21:00 12,5 C 77 % 1021,0 hPa 0,0 l/m 11,5 km/h N 8,6 C 9,6 C 28,2 km/h
03.10.2016 22:00 12,1 C 78 % 1021,5 hPa 0,0 l/m 10,0 km/h N 8,4 C 9,9 C 23,3 km/h
03.10.2016 23:00 11,9 C 79 % 1021,5 hPa 0,0 l/m 10,9 km/h N 8,3 C 9,3 C 24,9 km/h
04.10.2016 00:00 11,8 C 78 % 1021,1 hPa 0,0 l/m 11,6 km/h N 8,1 C 8,8 C 27,8 km/h
04.10.2016 01:00 11,9 C 77 % 1020,9 hPa 0,0 l/m 11,6 km/h N 8,0 C 8,9 C 28,6 km/h
04.10.2016 02:00 11,9 C 77 % 1020,6 hPa 0,0 l/m 12,6 km/h N 7,9 C 8,5 C 32,2 km/h
04.10.2016 03:00 11,9 C 76 % 1020,3 hPa 0,0 l/m 13,5 km/h N 7,8 C 8,0 C 29,0 km/h
04.10.2016 04:00 12,0 C 76 % 1019,9 hPa 0,0 l/m 12,7 km/h N 7,9 C 8,5 C 29,8 km/h
04.10.2016 05:00 11,8 C 77 % 1019,5 hPa 0,0 l/m 13,1 km/h N 8,0 C 8,1 C 31,0 km/h
04.10.2016 06:00 11,6 C 79 % 1019,2 hPa 0,3 l/m 12,6 km/h N 8,0 C 8,2 C 29,4 km/h
04.10.2016 07:00 10,9 C 82 % 1018,9 hPa 1,8 l/m 13,3 km/h N 7,9 C 7,0 C 31,0 km/h
04.10.2016 08:00 10,7 C 82 % 1018,5 hPa 1,3 l/m 16,5 km/h N 7,8 C 5,4 C 36,6 km/h
04.10.2016 09:00 10,8 C 82 % 1018,0 hPa 0,8 l/m 19,8 km/h N 7,8 C 4,4 C 45,5 km/h
04.10.2016 10:00 10,9 C 82 % 1018,2 hPa 2,6 l/m 19,9 km/h N 7,9 C 4,5 C 40,6 km/h
04.10.2016 11:00 11,0 C 83 % 1018,4 hPa 2,1 l/m 17,7 km/h N 8,3 C 5,4 C 37,4 km/h
04.10.2016 12:00 11,2 C 83 % 1019,0 hPa 4,2 l/m 15,7 km/h N 8,3 C 6,3 C 35,4 km/h
04.10.2016 13:00 11,4 C 82 % 1019,9 hPa 4,2 l/m 9,8 km/h N 8,4 C 9,4 C 25,3 km/h
04.10.2016 14:00 11,7 C 82 % 1020,3 hPa 3,9 l/m 7,5 km/h N 8,7 C 10,9 C 22,1 km/h
04.10.2016 15:00 11,7 C 82 % 1021,1 hPa 2,9 l/m 7,3 km/h N 8,8 C 11,1 C 24,9 km/h
04.10.2016 16:00 11,5 C 83 % 1021,6 hPa 0,0 l/m 10,3 km/h N 8,7 C 9,1 C 28,2 km/h
04.10.2016 17:00 11,3 C 82 % 1022,6 hPa 0,0 l/m 9,5 km/h N 8,4 C 9,4 C 25,8 km/h
04.10.2016 18:00 11,2 C 80 % 1023,5 hPa 0,0 l/m 9,0 km/h N 7,9 C 9,5 C 24,9 km/h
04.10.2016 19:00 11,3 C 75 % 1024,3 hPa 0,0 l/m 9,9 km/h N 7,1 C 9,1 C 26,1 km/h
04.10.2016 20:00 10,8 C 73 % 1025,1 hPa 0,0 l/m 7,9 km/h N 6,1 C 9,8 C 25,8 km/h
04.10.2016 21:00 9,9 C 73 % 1025,6 hPa 0,0 l/m 6,2 km/h N 5,2 C 9,8 C 18,9 km/h
04.10.2016 22:00 9,7 C 70 % 1025,8 hPa 0,0 l/m 6,7 km/h N 4,5 C 9,2 C 20,5 km/h
04.10.2016 23:00 9,2 C 69 % 1026,0 hPa 0,0 l/m 8,5 km/h N 3,8 C 7,7 C 22,9 km/h
05.10.2016 00:00 8,6 C 68 % 1026,0 hPa 0,0 l/m 8,4 km/h N 3,0 C 7,2 C 27,4 km/h
05.10.2016 01:00 8,1 C 67 % 1025,9 hPa 0,0 l/m 6,3 km/h N 2,4 C 7,6 C 24,1 km/h
05.10.2016 02:00 7,4 C 70 % 1025,6 hPa 0,0 l/m 6,1 km/h N 2,3 C 6,7 C 17,3 km/h
05.10.2016 03:00 7,8 C 70 % 1025,3 hPa 0,0 l/m 11,3 km/h N 2,7 C 4,5 C 27,8 km/h
05.10.2016 04:00 7,3 C 72 % 1025,1 hPa 0,0 l/m 10,5 km/h N 2,7 C 4,4 C 28,2 km/h
05.10.2016 05:00 6,7 C 74 % 1025,5 hPa 0,0 l/m 8,8 km/h N 2,4 C 4,8 C 25,3 km/h
05.10.2016 06:00 6,1 C 73 % 1025,7 hPa 0,0 l/m 7,8 km/h N 1,7 C 5,0 C 24,1 km/h
05.10.2016 07:00 6,1 C 71 % 1025,6 hPa 0,0 l/m 7,8 km/h N 1,3 C 5,0 C 20,9 km/h
05.10.2016 08:00 6,4 C 70 % 1025,3 hPa 0,0 l/m 9,4 km/h N 1,3 C 4,1 C 25,3 km/h
05.10.2016 09:00 7,0 C 69 % 1024,9 hPa 0,0 l/m 10,7 km/h N 1,6 C 3,8 C 27,3 km/h
05.10.2016 10:00 8,0 C 68 % 1024,2 hPa 0,0 l/m 11,4 km/h N 2,4 C 4,5 C 26,1 km/h
05.10.2016 11:00 8,4 C 66 % 1023,8 hPa 0,0 l/m 10,8 km/h N 2,4 C 5,4 C 27,0 km/h
05.10.2016 12:00 8,9 C 66 % 1023,3 hPa 0,0 l/m 11,3 km/h N 2,9 C 5,8 C 25,8 km/h
05.10.2016 13:00 9,6 C 63 % 1022,7 hPa 0,0 l/m 11,9 km/h N 2,8 C 6,1 C 27,8 km/h
05.10.2016 14:00 10,1 C 61 % 1021,8 hPa 0,0 l/m 10,6 km/h N 3,0 C 7,4 C 28,1 km/h
05.10.2016 15:00 10,3 C 61 % 1021,1 hPa 0,0 l/m 9,6 km/h N 3,1 C 8,2 C 24,1 km/h
05.10.2016 16:00 9,3 C 68 % 1020,8 hPa 0,3 l/m 9,4 km/h N 3,7 C 7,3 C 26,6 km/h
05.10.2016 17:00 9,3 C 68 % 1020,4 hPa 0,0 l/m 7,7 km/h N 3,6 C 8,3 C 23,3 km/h
05.10.2016 18:00 8,0 C 74 % 1020,2 hPa 0,3 l/m 10,8 km/h N 3,7 C 5,0 C 26,9 km/h
05.10.2016 19:00 7,4 C 78 % 1019,4 hPa 0,0 l/m 9,7 km/h N 3,8 C 5,0 C 27,4 km/h
05.10.2016 20:00 7,7 C 76 % 1018,9 hPa 0,3 l/m 8,7 km/h N 3,6 C 5,9 C 24,9 km/h
05.10.2016 21:00 7,4 C 78 % 1018,3 hPa 0,3 l/m 8,5 km/h N 3,9 C 5,8 C 24,9 km/h
05.10.2016 22:00 7,3 C 79 % 1017,4 hPa 0,0 l/m 12,8 km/h N 3,9 C 3,0 C 31,0 km/h
05.10.2016 23:00 7,4 C 79 % 1016,8 hPa 0,3 l/m 13,3 km/h N 4,0 C 2,8 C 31,8 km/h
06.10.2016 00:00 7,3 C 80 % 1015,9 hPa 0,3 l/m 12,5 km/h N 4,1 C 3,1 C 33,4 km/h
06.10.2016 01:00 7,1 C 82 % 1015,2 hPa 0,8 l/m 12,8 km/h N 4,1 C 2,7 C 31,4 km/h
06.10.2016 02:00 6,9 C 82 % 1014,6 hPa 1,0 l/m 13,4 km/h N 4,0 C 2,2 C 32,6 km/h
06.10.2016 03:00 6,8 C 83 % 1014,4 hPa 2,1 l/m 13,0 km/h N 4,1 C 2,3 C 29,8 km/h
06.10.2016 04:00 6,8 C 83 % 1013,8 hPa 2,6 l/m 12,2 km/h N 4,2 C 2,8 C 31,8 km/h
06.10.2016 05:00 6,9 C 83 % 1013,7 hPa 2,1 l/m 11,4 km/h N 4,2 C 3,3 C 30,2 km/h
06.10.2016 06:00 6,9 C 83 % 1013,6 hPa 1,0 l/m 11,4 km/h N 4,2 C 3,3 C 27,0 km/h
06.10.2016 07:00 6,8 C 83 % 1013,6 hPa 1,0 l/m 9,9 km/h N 4,1 C 4,2 C 26,1 km/h
06.10.2016 08:00 7,1 C 83 % 1013,4 hPa 0,3 l/m 13,1 km/h N 4,4 C 2,5 C 30,6 km/h
06.10.2016 09:00 7,6 C 83 % 1013,7 hPa 0,0 l/m 11,0 km/h N 4,9 C 4,3 C 25,3 km/h
06.10.2016 10:00 7,8 C 83 % 1013,9 hPa 0,0 l/m 10,7 km/h N 5,0 C 4,7 C 24,1 km/h
06.10.2016 11:00 8,1 C 83 % 1013,9 hPa 0,0 l/m 12,4 km/h N 5,4 C 4,1 C 27,3 km/h
06.10.2016 12:00 8,5 C 83 % 1014,1 hPa 0,3 l/m 8,8 km/h N 5,8 C 6,8 C 22,9 km/h
06.10.2016 13:00 9,1 C 82 % 1014,1 hPa 0,0 l/m 11,5 km/h N 6,1 C 5,7 C 27,0 km/h
06.10.2016 14:00 9,2 C 82 % 1014,2 hPa 0,0 l/m 9,9 km/h N 6,2 C 6,8 C 23,7 km/h
06.10.2016 15:00 9,1 C 81 % 1014,2 hPa 0,3 l/m 8,9 km/h N 6,1 C 7,4 C 26,1 km/h
06.10.2016 16:00 8,9 C 82 % 1014,3 hPa 0,0 l/m 7,9 km/h N 6,0 C 7,8 C 21,3 km/h
06.10.2016 17:00 8,5 C 83 % 1014,5 hPa 0,5 l/m 5,2 km/h N 5,7 C 8,5 C 16,1 km/h
06.10.2016 18:00 8,4 C 83 % 1015,0 hPa 0,3 l/m 5,6 km/h N 5,7 C 8,3 C 17,7 km/h
06.10.2016 19:00 8,5 C 83 % 1015,2 hPa 0,0 l/m 5,0 km/h N 5,8 C 8,5 C 17,3 km/h
06.10.2016 20:00 8,6 C 83 % 1015,3 hPa 0,0 l/m 4,8 km/h N 5,9 C 8,6 C 15,3 km/h
06.10.2016 21:00 8,5 C 83 % 1015,4 hPa 0,0 l/m 4,7 km/h N 5,8 C 8,5 C 15,3 km/h
06.10.2016 22:00 8,4 C 83 % 1015,7 hPa 0,0 l/m 2,7 km/h N 5,7 C 8,4 C 10,5 km/h
06.10.2016 23:00 8,4 C 83 % 1015,8 hPa 0,0 l/m 1,2 km/h N 5,7 C 8,4 C 6,8 km/h
07.10.2016 00:00 8,4 C 83 % 1015,9 hPa 0,0 l/m 1,7 km/h N 5,7 C 8,4 C 7,6 km/h
07.10.2016 01:00 8,3 C 83 % 1016,0 hPa 0,0 l/m 1,3 km/h N 5,6 C 8,3 C 5,2 km/h
07.10.2016 02:00 8,2 C 83 % 1015,9 hPa 0,0 l/m 0,1 km/h N 5,5 C 8,2 C 1,6 km/h
07.10.2016 03:00 8,0 C 83 % 1015,8 hPa 0,0 l/m 0,1 km/h N 5,3 C 8,0 C 2,4 km/h
07.10.2016 04:00 7,2 C 83 % 1015,9 hPa 0,0 l/m 0,1 km/h N 4,6 C 7,2 C 3,6 km/h
07.10.2016 05:00 6,8 C 83 % 1016,4 hPa 0,3 l/m 0,0 km/h N 4,1 C 6,8 C 0,8 km/h
07.10.2016 06:00 6,5 C 84 % 1016,6 hPa 0,0 l/m 0,0 km/h N 3,9 C 6,5 C 0,0 km/h
07.10.2016 07:00 6,3 C 84 % 1017,0 hPa 0,0 l/m 0,0 km/h N 3,8 C 6,3 C 1,2 km/h
07.10.2016 08:00 6,2 C 83 % 1017,3 hPa 0,0 l/m 0,0 km/h N 3,6 C 6,2 C 2,0 km/h
07.10.2016 09:00 6,5 C 83 % 1017,5 hPa 0,0 l/m 0,5 km/h N 3,9 C 6,5 C 5,2 km/h
07.10.2016 10:00 7,2 C 81 % 1017,6 hPa 0,0 l/m 1,8 km/h N 4,1 C 7,2 C 7,6 km/h
07.10.2016 11:00 8,4 C 77 % 1017,5 hPa 0,0 l/m 2,0 km/h N 4,5 C 8,4 C 8,4 km/h
07.10.2016 12:00 8,9 C 73 % 1017,3 hPa 0,0 l/m 2,1 km/h N 4,3 C 8,9 C 9,3 km/h
07.10.2016 13:00 9,8 C 72 % 1017,2 hPa 0,0 l/m 0,8 km/h N 5,0 C 9,8 C 8,5 km/h
07.10.2016 14:00 9,8 C 71 % 1017,0 hPa 0,0 l/m 2,1 km/h N 4,6 C 9,8 C 10,9 km/h
07.10.2016 15:00 9,8 C 70 % 1017,0 hPa 0,0 l/m 1,8 km/h N 4,4 C 9,8 C 9,7 km/h
07.10.2016 16:00 9,8 C 66 % 1017,2 hPa 0,0 l/m 2,5 km/h N 3,7 C 9,8 C 11,7 km/h
07.10.2016 17:00 9,4 C 67 % 1017,4 hPa 0,0 l/m 1,6 km/h N 3,6 C 9,4 C 8,9 km/h
07.10.2016 18:00 8,1 C 71 % 1017,8 hPa 0,0 l/m 0,0 km/h N 3,1 C 8,1 C 0,4 km/h
07.10.2016 19:00 6,2 C 76 % 1018,0 hPa 0,0 l/m 0,0 km/h N 2,2 C 6,2 C 0,4 km/h
07.10.2016 20:00 4,9 C 80 % 1018,0 hPa 0,0 l/m 0,0 km/h N 1,8 C 4,9 C 0,4 km/h
07.10.2016 21:00 3,7 C 82 % 1018,1 hPa 0,0 l/m 0,0 km/h N 0,9 C 3,7 C 0,0 km/h
07.10.2016 22:00 2,9 C 83 % 1018,2 hPa 0,0 l/m 0,0 km/h N 0,2 C 2,9 C 0,0 km/h
07.10.2016 23:00 2,8 C 84 % 1018,1 hPa 0,0 l/m 0,1 km/h N 0,3 C 2,8 C 0,8 km/h
08.10.2016 00:00 2,4 C 84 % 1017,9 hPa 0,0 l/m 0,3 km/h N -0,0 C 2,4 C 4,0 km/h
08.10.2016 01:00 2,2 C 84 % 1018,0 hPa 0,0 l/m 0,3 km/h N -0,2 C 2,2 C 2,8 km/h
08.10.2016 02:00 1,9 C 84 % 1018,0 hPa 0,0 l/m 0,1 km/h N -0,5 C 1,9 C 2,4 km/h
08.10.2016 03:00 1,5 C 84 % 1017,7 hPa 0,0 l/m 0,0 km/h N -1,0 C 1,5 C 0,4 km/h
08.10.2016 04:00 1,2 C 84 % 1017,4 hPa 0,0 l/m 0,0 km/h N -1,2 C 1,2 C 0,0 km/h
08.10.2016 05:00 1,1 C 84 % 1017,4 hPa 0,0 l/m 0,0 km/h N -1,3 C 1,1 C 0,0 km/h
08.10.2016 06:00 0,9 C 84 % 1017,7 hPa 0,0 l/m 0,0 km/h N -1,5 C 0,9 C 0,8 km/h
08.10.2016 07:00 1,0 C 84 % 1017,9 hPa 0,3 l/m 0,0 km/h N -1,4 C 1,0 C 0,8 km/h
08.10.2016 08:00 2,3 C 84 % 1018,3 hPa 0,0 l/m 0,0 km/h N -0,2 C 2,3 C 0,0 km/h
08.10.2016 09:00 5,9 C 83 % 1018,3 hPa 0,0 l/m 0,0 km/h N 3,3 C 5,9 C 0,8 km/h
08.10.2016 10:00 7,7 C 83 % 1018,6 hPa 0,0 l/m 0,9 km/h N 5,0 C 7,7 C 6,8 km/h
08.10.2016 11:00 9,4 C 81 % 1018,7 hPa 0,0 l/m 3,3 km/h N 6,3 C 9,4 C 12,5 km/h
08.10.2016 12:00 10,6 C 72 % 1018,8 hPa 0,0 l/m 4,9 km/h N 5,7 C 10,6 C 15,3 km/h
08.10.2016 13:00 11,6 C 69 % 1018,6 hPa 0,0 l/m 3,3 km/h N 6,0 C 11,6 C 14,9 km/h
08.10.2016 14:00 11,9 C 66 % 1018,3 hPa 0,0 l/m 1,7 km/h N 5,6 C 11,9 C 12,9 km/h
08.10.2016 15:00 11,8 C 64 % 1018,5 hPa 0,0 l/m 4,2 km/h N 5,2 C 11,8 C 12,5 km/h
08.10.2016 16:00 11,0 C 72 % 1019,0 hPa 0,0 l/m 3,7 km/h N 6,1 C 11,0 C 13,7 km/h
08.10.2016 17:00 10,1 C 76 % 1019,5 hPa 0,0 l/m 2,2 km/h N 6,1 C 10,1 C 10,1 km/h
08.10.2016 18:00 9,4 C 80 % 1019,8 hPa 0,0 l/m 1,2 km/h N 6,1 C 9,4 C 6,4 km/h
08.10.2016 19:00 8,9 C 81 % 1020,3 hPa 0,0 l/m 0,0 km/h N 5,8 C 8,9 C 0,8 km/h
08.10.2016 20:00 8,7 C 80 % 1020,6 hPa 0,0 l/m 0,9 km/h N 5,4 C 8,7 C 5,6 km/h
08.10.2016 21:00 8,7 C 78 % 1020,6 hPa 0,0 l/m 0,4 km/h N 5,0 C 8,7 C 5,6 km/h
08.10.2016 22:00 7,8 C 79 % 1020,7 hPa 0,0 l/m 0,3 km/h N 4,3 C 7,8 C 4,0 km/h
08.10.2016 23:00 8,2 C 81 % 1020,7 hPa 0,0 l/m 1,0 km/h N 5,1 C 8,2 C 5,6 km/h
09.10.2016 00:00 8,8 C 79 % 1020,4 hPa 0,0 l/m 3,6 km/h N 5,3 C 8,8 C 14,5 km/h
09.10.2016 01:00 9,0 C 77 % 1020,4 hPa 0,0 l/m 6,2 km/h N 5,2 C 8,7 C 18,5 km/h
09.10.2016 02:00 8,8 C 78 % 1020,6 hPa 0,0 l/m 4,3 km/h N 5,1 C 8,6 C 16,1 km/h
09.10.2016 03:00 8,4 C 79 % 1020,6 hPa 0,0 l/m 5,6 km/h N 5,0 C 8,0 C 16,9 km/h
09.10.2016 04:00 7,9 C 80 % 1020,8 hPa 0,0 l/m 0,5 km/h N 4,6 C 7,9 C 6,8 km/h
09.10.2016 05:00 8,4 C 79 % 1020,9 hPa 0,0 l/m 4,2 km/h N 5,0 C 8,4 C 11,7 km/h
09.10.2016 06:00 8,8 C 78 % 1020,8 hPa 0,0 l/m 4,4 km/h N 5,2 C 8,8 C 15,7 km/h
09.10.2016 07:00 7,9 C 79 % 1021,1 hPa 0,0 l/m 2,0 km/h N 4,6 C 7,9 C 8,9 km/h
09.10.2016 08:00 8,7 C 79 % 1021,4 hPa 0,0 l/m 3,5 km/h N 5,3 C 8,7 C 12,9 km/h
09.10.2016 09:00 9,6 C 77 % 1021,9 hPa 0,0 l/m 3,0 km/h N 5,7 C 9,6 C 14,5 km/h
09.10.2016 10:00 9,7 C 77 % 1022,1 hPa 0,0 l/m 1,8 km/h N 5,8 C 9,7 C 11,3 km/h
09.10.2016 11:00 10,4 C 73 % 1022,2 hPa 0,0 l/m 4,9 km/h N 5,8 C 10,4 C 18,1 km/h
09.10.2016 12:00 10,7 C 72 % 1022,3 hPa 0,0 l/m 7,9 km/h N 5,8 C 9,6 C 22,1 km/h
09.10.2016 13:00 10,7 C 70 % 1022,2 hPa 0,0 l/m 8,2 km/h N 5,5 C 9,5 C 23,3 km/h
09.10.2016 14:00 11,0 C 71 % 1022,0 hPa 0,0 l/m 6,3 km/h N 6,0 C 10,3 C 18,9 km/h
09.10.2016 15:00 10,9 C 72 % 1021,9 hPa 0,0 l/m 1,4 km/h N 6,0 C 10,9 C 8,9 km/h
09.10.2016 16:00 11,6 C 67 % 1021,7 hPa 0,0 l/m 2,4 km/h N 5,7 C 11,6 C 12,1 km/h
09.10.2016 17:00 11,3 C 69 % 1021,6 hPa 0,0 l/m 0,3 km/h N 5,7 C 11,3 C 4,4 km/h
09.10.2016 18:00 10,1 C 72 % 1022,0 hPa 0,0 l/m 0,0 km/h N 5,3 C 10,1 C 0,0 km/h
09.10.2016 19:00 8,3 C 77 % 1022,6 hPa 0,0 l/m 0,0 km/h N 4,4 C 8,3 C 0,0 km/h
09.10.2016 20:00 6,7 C 80 % 1022,9 hPa 0,0 l/m 0,0 km/h N 3,5 C 6,7 C 0,4 km/h
09.10.2016 21:00 5,8 C 82 % 1023,2 hPa 0,0 l/m 0,0 km/h N 3,0 C 5,8 C 0,0 km/h
09.10.2016 22:00 5,4 C 83 % 1023,5 hPa 0,0 l/m 0,0 km/h N 2,7 C 5,4 C 0,0 km/h
09.10.2016 23:00 5,4 C 83 % 1023,6 hPa 0,0 l/m 0,0 km/h N 2,8 C 5,4 C 0,0 km/h
Min-Datum _ 08.10.16 05.10.16 06.10.16 - 07.10.16 - 08.10.16 08.10.16 07.10.16
_ Min-Zeit 06:45 15:15 08:15 - 01:45 - 06:45 06:45 02:45
Minimum _ 0,8 C 57 % 1013,3 hPa - 0,0 km/h - -1,6 C 0,8 C 0,0 km/h
Max-Datum _ 03.10.16 07.10.16 05.10.16 04.10.16 04.10.16 - 03.10.16 03.10.16 04.10.16
_ Max-Zeit 15:45 06:00 00:30 12:30 10:15 - 00:00 15:45 09:15
Maximum _ 16,4 C 84 % 1026,1 hPa 4,2 l/m 21,1 km/h
N
- 10,7 C 14,7 C 49,9 km/h
N
Durchschnitt _ 9,0 C 77 % 1019,4 hPa #40,3 l/m 6,4 km/h N 5,2 C 7,7 C 17,8 km/h